Flight Track Log - Related Links

Times and Time Zones

All times are in EDT time to prevent confusion due to time zone crossing. See the UAL4422 flight status page for this flight to view local times or setup timezone preferences in your user account.

Time Position Orientation Groundspeed Altitude Reporting Facility
EDT Latitude Longitude Course Direction KTS MPH feet Rate Location/Type
Sat 04:33:55 PM 29.9639 -95.3458 276° West 152 175 700  Level Houston Center
Sat 04:34:20 PM 29.9456 -95.3503 192° South 188 216 1,500 2,113 Climbing Houston Center
Sat 04:35:06 PM 29.9217 -95.3983 240° Southwest 222 255 3,200 2,164 Climbing Houston Center
Sat 04:35:21 PM 29.9114 -95.4147 234° Southwest 239 275 3,700 2,419 Climbing Houston Center
Sat 04:36:08 PM 29.9047 -95.4739 263° West 255 293 5,700 2,752 Climbing Houston Center
Sat 04:37:00 PM 30.0265 -95.7385 277° West  Level FlightAware Approximate
Sat 04:37:10 PM 29.9219 -95.5550 284° West 262 302 8,700  Level Houston Center
Sat 04:38:00 PM 30.0367 -95.8403 276° West  Level FlightAware Approximate
Sat 04:38:12 PM 29.9442 -95.6389 287° West 271 312 10,400  Level Houston Center
Sat 04:39:00 PM 30.0452 -95.9423 276° West  Level FlightAware Approximate
Sat 04:39:14 PM 29.9700 -95.7403 286° West 330 380 11,200  Level Houston Center
Sat 04:40:16 PM 29.9975 -95.8486 286° West 351 404 12,600 1,597 Climbing Houston Center
Sat 04:41:18 PM 30.0317 -95.9781 287° West 355 409 14,500 1,610 Climbing Houston Center
Sat 04:42:19 PM 30.0569 -96.0778 286° West 357 411 15,900 1,415 Climbing Houston Center
Sat 04:43:21 PM 30.0850 -96.1858 287° West 355 409 17,400 1,452 Climbing Houston Center
Sat 04:44:23 PM 30.1108 -96.3161 283° West 348 400 18,900 1,306 Climbing Houston Center
Sat 04:45:25 PM 30.1256 -96.4208 279° West 353 406 20,100 1,210 Climbing Houston Center
Sat 04:46:27 PM 30.1428 -96.5339 280° West 353 406 21,400 1,258 Climbing Houston Center
Sat 04:47:29 PM 30.1603 -96.6478 280° West 356 410 22,700 1,258 Climbing Houston Center
Sat 04:48:31 PM 30.1761 -96.7608 279° West 352 405 24,000 1,355 Climbing Houston Center
Sat 04:49:33 PM 30.1967 -96.8925 280° West 352 405 25,500 1,355 Climbing Houston Center
Sat 04:50:35 PM 30.2125 -97.0033 279° West 348 400 26,800 1,210 Climbing Houston Center
Sat 04:51:37 PM 30.2286 -97.1125 280° West 342 394 28,000 1,210 Climbing Houston Center
Sat 04:52:39 PM 30.2447 -97.2175 280° West 332 382 29,300 1,268 Climbing Houston Center
Sat 04:53:40 PM 30.2600 -97.3225 280° West 327 376 30,600 1,171 Climbing Houston Center
Sat 04:54:42 PM 30.2753 -97.4275 280° West 326 375 31,700 1,016 Climbing Houston Center
Sat 04:55:44 PM 30.2903 -97.5353 279° West 333 383 32,700 968 Climbing Houston Center
Sat 04:56:46 PM 30.3069 -97.6461 280° West 341 392 33,700 629 Climbing Houston Center
Sat 04:57:48 PM 30.3231 -97.7550 280° West 341 392 34,000 145 Climbing Houston Center
Sat 04:58:50 PM 30.3400 -97.8872 278° West 350 403 34,000  Level Houston Center
Sat 04:59:52 PM 30.3592 -97.9972 281° West 347 399 34,000  Level Houston Center
Sat 05:00:54 PM 30.4019 -98.1003 296° West 350 403 34,000  Level Houston Center
Sat 05:01:56 PM 30.4442 -98.1994 296° West 341 392 34,000  Level Houston Center
Sat 05:02:57 PM 30.4844 -98.2989 295° West 338 389 34,000  Level Houston Center
Sat 05:03:59 PM 30.5247 -98.3978 295° West 334 384 34,000  Level Houston Center
Sat 05:05:01 PM 30.5653 -98.4953 296° West 333 383 34,000  Level Houston Center
Sat 05:06:03 PM 30.6058 -98.5925 296° West 333 383 34,000  Level Houston Center
Sat 05:07:05 PM 30.6469 -98.6908 296° West 335 386 34,000  Level Houston Center
Sat 05:08:07 PM 30.6944 -98.8064 296° West 337 388 34,000  Level Houston Center
Sat 05:09:09 PM 30.7336 -98.9058 295° West 336 387 34,000  Level Houston Center
Sat 05:10:11 PM 30.7747 -99.0047 296° West 337 388 34,000  Level Houston Center
Sat 05:11:13 PM 30.8142 -99.1039 295° West 336 387 34,000  Level Houston Center
Sat 05:12:15 PM 30.8517 -99.1953 296° West 334 384 34,000  Level Houston Center
Sat 05:13:17 PM 30.8911 -99.2931 295° West 334 384 34,000  Level Houston Center
Sat 05:14:19 PM 30.9383 -99.4103 295° West 334 384 34,000  Level Houston Center
Sat 05:15:21 PM 30.9761 -99.5064 295° West 327 376 34,000  Level Houston Center
Sat 05:16:23 PM 31.0142 -99.6044 294° West 333 383 34,000  Level Houston Center
Sat 05:17:25 PM 31.0539 -99.7036 295° West 339 390 34,000  Level Houston Center
Sat 05:18:27 PM 31.0931 -99.8008 295° West 333 383 34,000  Level Houston Center
Sat 05:19:29 PM 31.1325 -99.8981 295° West 333 383 34,000  Level Houston Center
Sat 05:20:30 PM 31.1783 -100.0156 295° West 335 386 34,000  Level Houston Center
Sat 05:21:32 PM 31.2164 -100.1108 295° West 328 377 34,000 -339 Level Houston Center
Sat 05:22:34 PM 31.2547 -100.2083 295° West 331 381 33,300 -823 Descending Houston Center
Sat 05:23:36 PM 31.2919 -100.3042 294° West 327 376 32,300 -968 Descending Houston Center
Sat 05:24:38 PM 31.3289 -100.3983 295° West 322 371 31,300 -1,065 Descending Houston Center
Sat 05:25:40 PM 31.3733 -100.5147 294° West 329 379 30,100 -1,091 Descending Houston Center
Sat 05:26:39 PM 31.4108 -100.6067 296° West 323 372 29,100 -958 Descending Fort Worth Center
Sat 05:27:39 PM 31.4439 -100.6956 294° West 318 366 28,200 -1,200 Descending Fort Worth Center
Sat 05:28:39 PM 31.4831 -100.7944 295° West 324 373 26,700 -1,500 Descending Fort Worth Center
Sat 05:29:39 PM 31.5200 -100.8981 293° West 331 381 25,200 -1,750 Descending Fort Worth Center
Sat 05:30:39 PM 31.5608 -100.9997 295° West 341 392 23,200 -2,000 Descending Fort Worth Center
Sat 05:31:39 PM 31.6017 -101.1036 295° West 341 392 21,200 -2,000 Descending Fort Worth Center
Sat 05:32:39 PM 31.6425 -101.2028 296° West 336 387 19,200 -2,050 Descending Fort Worth Center
Sat 05:33:39 PM 31.6750 -101.2994 292° West 336 387 17,100 -1,650 Descending Fort Worth Center
Sat 05:34:39 PM 31.7158 -101.3964 296° West 336 387 15,900 -1,800 Descending Fort Worth Center
Sat 05:35:39 PM 31.7483 -101.4906 292° West 325 374 13,500 -2,350 Descending Fort Worth Center
Sat 05:36:39 PM 31.7831 -101.5825 294° West 320 368 11,200 -1,700 Descending Fort Worth Center
Sat 05:37:39 PM 31.8136 -101.6644 294° West 299 344 10,100 -1,350 Descending Fort Worth Center
Sat 05:38:39 PM 31.8442 -101.7442 294° West 279 321 8,500 -1,550 Descending Fort Worth Center
Sat 05:39:39 PM 31.8728 -101.8239 293° West 267 307 7,000 -750 Descending Fort Worth Center
Sat 05:40:39 PM 31.9014 -101.8986 294° West 262 302 7,000 -500 Level Fort Worth Center
Sat 05:41:39 PM 31.9261 -101.9658 293° West 244 281 6,000 -550 Descending Fort Worth Center
Sat 05:42:39 PM 31.9508 -102.0331 293° West 233 268 5,900 -100 Descending Fort Worth Center

Login

Don't have an account? Register now (free) for customized features, flight alerts, and more!